Aeroporto :
LOGIN :

Iscrizione | Disclaimer

   EN    FR    IT 

 










Sommario :    VFR   VFR Marginale   IFR   IFR Intensivo   IFR Molto Intensivo
Visibilità : 
Base nubi : 
>= 8 km
>= 3000ft
5 / 8 km
1000 / 3000 ft
1500m / 5 km
500 / 1000 ft
800 / 1500m
200 / 500 ft
< 800m
< 200 ft
Simboli :   Temporali  Nebbia  Neve Forte  Precipitazioni Forti  Vento > 20 kt
SIGMETs :   Varie  Temporali  Ghiacco  Turbolenza  Onda orograficha  Ceneri Vulcaniche






- Altitudine del aeroporto : 348 ft
- Codice IATA : STN


EGSS - London Stansted

ULTIMO METAR :
  • 171750Z AUTO 24009KT 9999 NCD 04/02 Q1016

METARs OBSOLETI :
  • 171720Z AUTO 23008KT 9999 NCD 04/02 Q1015
  • 171650Z AUTO 23009KT 9999 NCD 05/02 Q1015
  • 171620Z AUTO 24008KT 9999 NCD 05/02 Q1014
  • 171550Z AUTO 25008KT 9999 NCD 05/02 Q1014
  • 171520Z AUTO 27009KT 9999 NCD 05/02 Q1014
  • 171450Z AUTO 28012KT 9999 SCT019 BKN037 BKN044 05/02 Q1013

TAF TAF EGSS
Valido dal 17 a 18 ore il 19 a 00 ore UTC


171703Z 1718/1824 25010KT 9999 FEW020 SCT040
PROB30
TEMPO 1718/1802 7000 SHRA BKN014
BECMG 1809/1812 31005KT
TEMPO 1818/1824 7000
PROB30 1821/1824 4000 MIFG BR
ATIS : +44 1279 669 325



MetMap, La meteo Aeronautica in un colpo d'occhio ! - Copyright ORBIFLY Dicembre 2007 - Disclaimer

ORBIFLY MET'MAP TEAM :

Programmazione e sviluppo : Alexandra Zaïnal
Concezione : Baudouin d'Aumeries
Aiuto per la programmazione : Marc-Olivier Méhu
Supporto tecnico e logistico : Manuel Goepfert
Aiuto per la traduzione : Arnaldo La Scala

Contatto : metmap@orbifly.com




FONTI E CREDITI :

   NOAA